createdAt,value
2022-12-24T00:00:56.595Z,1005.07
2022-12-24T00:01:56.702Z,1005.07
2022-12-24T00:02:56.927Z,1005.08
2022-12-24T00:03:57.008Z,1005.07
2022-12-24T00:05:00.871Z,1005.06
2022-12-24T00:05:57.351Z,1005.06
2022-12-24T00:06:57.527Z,1005.02
2022-12-24T00:07:57.712Z,1005.04
2022-12-24T00:08:57.870Z,1005.06
2022-12-24T00:09:58.051Z,1005.02
2022-12-24T00:10:58.210Z,1005.04
2022-12-24T00:11:58.382Z,1005.03
2022-12-24T00:12:58.560Z,1005.03
2022-12-24T00:13:58.735Z,1005.03
2022-12-24T00:14:58.901Z,1005.01
2022-12-24T00:15:59.128Z,1005.00
2022-12-24T00:16:59.315Z,1005.01
2022-12-24T00:17:59.418Z,1004.98
2022-12-24T00:18:59.583Z,1005.02
2022-12-24T00:19:59.742Z,1005.03
2022-12-24T00:20:59.910Z,1005.04
2022-12-24T00:22:00.086Z,1005.07
2022-12-24T00:23:00.256Z,1005.06
2022-12-24T00:24:00.418Z,1005.10
2022-12-24T00:25:00.612Z,1005.11
2022-12-24T00:26:00.782Z,1005.13
2022-12-24T00:27:00.931Z,1005.14
2022-12-24T00:28:01.132Z,1005.16
2022-12-24T00:29:01.305Z,1005.16
2022-12-24T00:30:01.508Z,1005.12
2022-12-24T00:31:01.670Z,1005.14
2022-12-24T00:32:01.826Z,1005.13
2022-12-24T00:33:02.011Z,1005.16
2022-12-24T00:34:02.179Z,1005.12
2022-12-24T00:35:02.511Z,1005.11
2022-12-24T00:36:02.519Z,1005.13
2022-12-24T00:37:02.678Z,1005.06
2022-12-24T00:38:02.857Z,1005.12
2022-12-24T00:39:03.034Z,1005.12
2022-12-24T00:40:03.206Z,1005.13
2022-12-24T00:41:03.377Z,1005.10
2022-12-24T00:42:03.538Z,1005.14
2022-12-24T00:43:03.714Z,1005.10
2022-12-24T00:44:03.907Z,1005.11
2022-12-24T00:45:04.058Z,1005.11
2022-12-24T00:46:04.257Z,1005.17
2022-12-24T00:47:08.353Z,1005.15
2022-12-24T00:48:05.620Z,1005.16
2022-12-24T00:49:04.758Z,1005.20
2022-12-24T00:50:04.946Z,1005.20
2022-12-24T00:51:05.121Z,1005.20
2022-12-24T00:52:05.268Z,1005.25
2022-12-24T00:53:05.519Z,1005.21
2022-12-24T00:54:05.633Z,1005.23
2022-12-24T00:55:05.789Z,1005.24
2022-12-24T00:56:05.958Z,1005.22
2022-12-24T00:57:06.145Z,1005.22
2022-12-24T00:58:06.319Z,1005.24
2022-12-24T00:59:06.487Z,1005.25
2022-12-24T01:00:06.665Z,1005.24
2022-12-24T01:01:06.900Z,1005.23
2022-12-24T01:02:07.252Z,1005.31
2022-12-24T01:03:07.258Z,1005.33
2022-12-24T01:04:07.338Z,1005.33
2022-12-24T01:05:07.508Z,1005.37
2022-12-24T01:06:07.674Z,1005.41
2022-12-24T01:07:07.825Z,1005.40
2022-12-24T01:08:08.014Z,1005.46
2022-12-24T01:09:08.187Z,1005.41
2022-12-24T01:10:08.367Z,1005.48
2022-12-24T01:11:08.520Z,1005.49
2022-12-24T01:12:08.705Z,1005.51
2022-12-24T01:13:08.997Z,1005.50
2022-12-24T01:14:09.076Z,1005.50
2022-12-24T01:15:09.242Z,1005.54
2022-12-24T01:16:09.469Z,1005.55
2022-12-24T01:17:09.596Z,1005.58
2022-12-24T01:18:09.806Z,1005.58
2022-12-24T01:19:09.961Z,1005.58
2022-12-24T01:20:10.149Z,1005.58
2022-12-24T01:21:10.299Z,1005.58
2022-12-24T01:22:10.519Z,1005.64
2022-12-24T01:23:10.662Z,1005.66
2022-12-24T01:24:10.816Z,1005.68
2022-12-24T01:25:11.002Z,1005.64
2022-12-24T01:26:11.147Z,1005.71
2022-12-24T01:27:11.294Z,1005.71
2022-12-24T01:28:11.496Z,1005.72
2022-12-24T01:29:11.643Z,1005.72
2022-12-24T01:30:11.842Z,1005.75
2022-12-24T01:31:12.091Z,1005.75
2022-12-24T01:32:12.194Z,1005.75
2022-12-24T01:33:12.355Z,1005.77
2022-12-24T01:34:12.501Z,1005.78
2022-12-24T01:35:12.655Z,1005.81
2022-12-24T01:36:12.821Z,1005.78
2022-12-24T01:37:12.990Z,1005.83
2022-12-24T01:38:13.164Z,1005.80
2022-12-24T01:39:13.312Z,1005.83
2022-12-24T01:40:13.485Z,1005.84
2022-12-24T01:41:13.644Z,1005.85
2022-12-24T01:42:13.803Z,1005.85
2022-12-24T01:43:13.983Z,1005.89
2022-12-24T01:44:14.160Z,1005.86
2022-12-24T01:45:14.325Z,1005.88
2022-12-24T01:46:14.539Z,1005.92
2022-12-24T01:47:14.716Z,1005.91
2022-12-24T01:48:14.886Z,1005.89
2022-12-24T01:49:15.035Z,1005.95
2022-12-24T01:50:15.239Z,1005.95
2022-12-24T01:51:15.382Z,1005.93
2022-12-24T01:52:15.580Z,1005.97
2022-12-24T01:53:15.757Z,1005.95
2022-12-24T01:54:15.902Z,1005.98
2022-12-24T01:55:16.068Z,1006.03
2022-12-24T01:56:16.233Z,1006.03
2022-12-24T01:57:16.423Z,1006.03
2022-12-24T01:58:16.674Z,1006.07
2022-12-24T01:59:16.786Z,1006.05
2022-12-24T02:00:16.951Z,1006.11
2022-12-24T02:01:17.175Z,1006.13
2022-12-24T02:02:17.379Z,1006.16
2022-12-24T02:03:17.529Z,1006.22
2022-12-24T02:04:17.619Z,1006.26
2022-12-24T02:05:17.771Z,1006.30
2022-12-24T02:06:17.999Z,1006.31
2022-12-24T02:07:18.141Z,1006.31
2022-12-24T02:08:18.321Z,1006.35
2022-12-24T02:09:18.467Z,1006.32
2022-12-24T02:10:18.641Z,1006.31
2022-12-24T02:11:18.803Z,1006.35
2022-12-24T02:12:18.980Z,1006.34
2022-12-24T02:13:19.175Z,1006.36
2022-12-24T02:14:19.322Z,1006.38
2022-12-24T02:15:19.494Z,1006.40
2022-12-24T02:16:19.715Z,1006.40
2022-12-24T02:17:19.850Z,1006.39
2022-12-24T02:18:20.023Z,1006.41
2022-12-24T02:19:20.215Z,1006.45
2022-12-24T02:20:20.361Z,1006.45
2022-12-24T02:21:20.520Z,1006.47
2022-12-24T02:22:20.731Z,1006.49
2022-12-24T02:23:20.890Z,1006.50
2022-12-24T02:24:21.083Z,1006.53
2022-12-24T02:25:21.249Z,1006.56
2022-12-24T02:26:21.445Z,1006.56
2022-12-24T02:27:21.621Z,1006.54
2022-12-24T02:28:21.781Z,1006.62
2022-12-24T02:29:21.951Z,1006.63
2022-12-24T02:30:22.152Z,1006.64
2022-12-24T02:31:22.329Z,1006.67
2022-12-24T02:32:22.487Z,1006.73
2022-12-24T02:33:22.647Z,1006.75
2022-12-24T02:34:22.818Z,1006.79
2022-12-24T02:35:22.993Z,1006.81
2022-12-24T02:36:23.166Z,1006.84
2022-12-24T02:37:23.348Z,1006.84
2022-12-24T02:38:23.511Z,1006.85
2022-12-24T02:39:23.683Z,1006.82
2022-12-24T02:40:23.848Z,1006.82
2022-12-24T02:41:24.016Z,1006.80
2022-12-24T02:42:24.209Z,1006.75
2022-12-24T02:43:24.405Z,1006.76
2022-12-24T02:44:24.548Z,1006.73
2022-12-24T02:45:24.724Z,1006.74
2022-12-24T02:46:24.939Z,1006.71
2022-12-24T02:47:25.066Z,1006.72
2022-12-24T02:48:25.249Z,1006.72
2022-12-24T02:49:25.417Z,1006.76
2022-12-24T02:50:25.566Z,1006.79
2022-12-24T02:51:25.770Z,1006.82
2022-12-24T02:52:25.927Z,1006.83
2022-12-24T02:53:26.144Z,1006.82
2022-12-24T02:54:26.277Z,1006.87
2022-12-24T02:55:26.447Z,1006.85
2022-12-24T02:56:26.635Z,1006.85
2022-12-24T02:57:26.807Z,1006.87
2022-12-24T02:58:26.993Z,1006.87
2022-12-24T02:59:27.157Z,1006.89
2022-12-24T03:00:27.409Z,1006.97
2022-12-24T03:01:27.666Z,1006.97
2022-12-24T03:02:27.766Z,1006.91
2022-12-24T03:03:27.832Z,1006.91
2022-12-24T03:04:27.986Z,1006.97
2022-12-24T03:05:28.162Z,1006.95
2022-12-24T03:06:28.324Z,1007.00
2022-12-24T03:07:28.521Z,1006.98
2022-12-24T03:08:28.646Z,1006.99
2022-12-24T03:09:28.817Z,1007.03
2022-12-24T03:10:28.976Z,1006.99
2022-12-24T03:11:29.145Z,1007.00
2022-12-24T03:12:29.331Z,1006.94
2022-12-24T03:13:29.513Z,1006.94
2022-12-24T03:14:29.692Z,1006.97
2022-12-24T03:15:29.861Z,1006.94
2022-12-24T03:16:30.102Z,1006.96
2022-12-24T03:17:30.208Z,1007.00
2022-12-24T03:18:30.370Z,1007.00
2022-12-24T03:19:30.547Z,1007.10
2022-12-24T03:20:30.724Z,1007.08
2022-12-24T03:21:30.919Z,1007.08
2022-12-24T03:22:31.042Z,1007.12
2022-12-24T03:23:31.243Z,1007.09
2022-12-24T03:24:31.387Z,1007.15
2022-12-24T03:25:31.567Z,1007.14
2022-12-24T03:26:31.732Z,1007.13
2022-12-24T03:27:31.898Z,1007.13
2022-12-24T03:28:32.101Z,1007.14
2022-12-24T03:29:32.273Z,1007.12
2022-12-24T03:30:32.444Z,1007.14
2022-12-24T03:31:32.658Z,1007.13
2022-12-24T03:32:32.785Z,1007.19
2022-12-24T03:33:32.936Z,1007.25
2022-12-24T03:34:33.114Z,1007.27
2022-12-24T03:35:33.283Z,1007.31
2022-12-24T03:36:33.447Z,1007.32
2022-12-24T03:37:33.614Z,1007.35
2022-12-24T03:38:33.789Z,1007.37
2022-12-24T03:39:33.985Z,1007.39
2022-12-24T03:40:34.122Z,1007.43
2022-12-24T03:41:34.273Z,1007.45
2022-12-24T03:42:34.457Z,1007.48
2022-12-24T03:43:34.624Z,1007.46
2022-12-24T03:44:34.817Z,1007.45
2022-12-24T03:45:35.005Z,1007.42
2022-12-24T03:46:35.154Z,1007.44
2022-12-24T03:47:35.317Z,1007.47
2022-12-24T03:48:35.550Z,1007.43
2022-12-24T03:49:35.713Z,1007.47
2022-12-24T03:50:35.828Z,1007.45
2022-12-24T03:51:35.983Z,1007.48
2022-12-24T03:52:36.159Z,1007.50
2022-12-24T03:53:36.333Z,1007.51
2022-12-24T03:54:36.516Z,1007.49
2022-12-24T03:55:36.688Z,1007.47
2022-12-24T03:56:36.857Z,1007.52
2022-12-24T03:57:37.023Z,1007.47
2022-12-24T03:58:37.191Z,1007.47
2022-12-24T03:59:37.388Z,1007.50
2022-12-24T04:00:37.614Z,1007.53
2022-12-24T04:01:37.823Z,1007.58
2022-12-24T04:02:38.075Z,1007.61
2022-12-24T04:03:38.093Z,1007.64
2022-12-24T04:04:38.384Z,1007.60
2022-12-24T04:05:38.421Z,1007.66
2022-12-24T04:06:38.593Z,1007.66
2022-12-24T04:07:38.790Z,1007.63
2022-12-24T04:08:38.912Z,1007.63
2022-12-24T04:09:39.101Z,1007.64
2022-12-24T04:10:39.244Z,1007.59
2022-12-24T04:11:39.411Z,1007.62
2022-12-24T04:12:39.605Z,1007.62
2022-12-24T04:13:39.800Z,1007.63
2022-12-24T04:14:39.972Z,1007.63
2022-12-24T04:15:40.143Z,1007.67
2022-12-24T04:16:40.403Z,1007.64
2022-12-24T04:17:40.497Z,1007.68
2022-12-24T04:18:40.699Z,1007.68
2022-12-24T04:19:40.849Z,1007.74
2022-12-24T04:20:40.982Z,1007.71
2022-12-24T04:21:41.159Z,1007.75
2022-12-24T04:22:41.330Z,1007.74
2022-12-24T04:23:41.505Z,1007.73
2022-12-24T04:24:41.692Z,1007.83
2022-12-24T04:25:41.884Z,1007.72
2022-12-24T04:26:42.037Z,1007.78
2022-12-24T04:27:42.219Z,1007.83
2022-12-24T04:28:42.398Z,1007.86
2022-12-24T04:29:42.589Z,1007.94
2022-12-24T04:30:42.744Z,1007.93
2022-12-24T04:31:42.941Z,1007.99
2022-12-24T04:32:43.102Z,1008.01
2022-12-24T04:33:43.279Z,1008.07
2022-12-24T04:34:43.462Z,1008.06
2022-12-24T04:35:43.640Z,1008.08
2022-12-24T04:36:43.818Z,1008.06
2022-12-24T04:37:44.012Z,1008.14
2022-12-24T04:38:44.174Z,1008.12
2022-12-24T04:39:44.332Z,1008.14
2022-12-24T04:40:44.473Z,1008.20
2022-12-24T04:41:44.643Z,1008.17
2022-12-24T04:42:44.837Z,1008.22
2022-12-24T04:43:45.047Z,1008.21
2022-12-24T04:44:45.195Z,1008.17
2022-12-24T04:45:45.374Z,1008.26
2022-12-24T04:46:45.532Z,1008.24
2022-12-24T04:47:45.713Z,1008.23
2022-12-24T04:48:45.875Z,1008.21
2022-12-24T04:49:46.067Z,1008.18
2022-12-24T04:50:46.200Z,1008.19
2022-12-24T04:51:46.369Z,1008.18
2022-12-24T04:52:46.546Z,1008.15
2022-12-24T04:53:46.718Z,1008.16
2022-12-24T04:54:46.898Z,1008.13
2022-12-24T04:55:47.098Z,1008.14
2022-12-24T04:56:47.248Z,1008.12
2022-12-24T04:57:52.731Z,1008.08
2022-12-24T04:58:48.588Z,1008.07
2022-12-24T04:59:47.777Z,1008.12
2022-12-24T05:00:47.961Z,1008.10
2022-12-24T05:01:48.251Z,1008.12
2022-12-24T05:02:48.406Z,1008.13
2022-12-24T05:03:48.438Z,1008.14
2022-12-24T05:04:48.609Z,1008.17
2022-12-24T05:05:48.794Z,1008.15
2022-12-24T05:06:48.951Z,1008.14
2022-12-24T05:07:49.164Z,1008.14
2022-12-24T05:08:49.320Z,1008.13
2022-12-24T05:09:49.496Z,1008.19
2022-12-24T05:10:49.668Z,1008.17
2022-12-24T05:11:49.827Z,1008.14
2022-12-24T05:12:50.005Z,1008.12
2022-12-24T05:13:50.179Z,1008.07
2022-12-24T05:14:50.326Z,1008.13
2022-12-24T05:15:50.489Z,1008.11
2022-12-24T05:16:50.704Z,1008.08
2022-12-24T05:17:50.879Z,1008.10
2022-12-24T05:18:50.994Z,1008.10
2022-12-24T05:19:51.174Z,1008.08
2022-12-24T05:20:51.337Z,1008.06
2022-12-24T05:21:51.517Z,1008.08
2022-12-24T05:22:51.698Z,1008.07
2022-12-24T05:23:51.875Z,1008.04
2022-12-24T05:24:52.057Z,1008.06
2022-12-24T05:25:52.251Z,1008.15
2022-12-24T05:26:52.418Z,1008.24
2022-12-24T05:27:52.596Z,1008.26
2022-12-24T05:28:52.766Z,1008.26
2022-12-24T05:29:52.957Z,1008.27
2022-12-24T05:30:53.166Z,1008.28
2022-12-24T05:31:53.279Z,1008.33
2022-12-24T05:32:53.446Z,1008.33
2022-12-24T05:33:53.629Z,1008.34
2022-12-24T05:34:53.804Z,1008.34
2022-12-24T05:35:53.982Z,1008.34
2022-12-24T05:36:54.174Z,1008.34
2022-12-24T05:37:54.369Z,1008.33
2022-12-24T05:38:54.526Z,1008.34
2022-12-24T05:39:54.675Z,1008.33
2022-12-24T05:40:54.835Z,1008.36
2022-12-24T05:41:55.008Z,1008.36
2022-12-24T05:42:55.189Z,1008.37
2022-12-24T05:43:55.366Z,1008.43
2022-12-24T05:44:55.556Z,1008.47
2022-12-24T05:45:55.761Z,1008.58
2022-12-24T05:46:55.910Z,1008.59
2022-12-24T05:47:56.066Z,1008.57
2022-12-24T05:48:56.237Z,1008.57
2022-12-24T05:49:56.429Z,1008.61
2022-12-24T05:50:56.585Z,1008.54
2022-12-24T05:51:56.765Z,1008.54
2022-12-24T05:52:56.938Z,1008.55
2022-12-24T05:53:57.122Z,1008.56
2022-12-24T05:54:57.294Z,1008.61
2022-12-24T05:55:57.474Z,1008.59
2022-12-24T05:56:57.641Z,1008.63
2022-12-24T05:57:57.813Z,1008.64
2022-12-24T05:58:58.002Z,1008.70
2022-12-24T05:59:58.168Z,1008.66
2022-12-24T06:00:58.341Z,1008.66
2022-12-24T06:01:58.700Z,1008.69
2022-12-24T06:02:58.707Z,1008.68
2022-12-24T06:03:58.853Z,1008.63
2022-12-24T06:04:59.076Z,1008.56
2022-12-24T06:05:59.194Z,1008.57
2022-12-24T06:06:59.359Z,1008.52
2022-12-24T06:07:59.539Z,1008.50
2022-12-24T06:08:59.703Z,1008.50
2022-12-24T06:09:59.877Z,1008.46
2022-12-24T06:11:00.044Z,1008.45
2022-12-24T06:12:00.205Z,1008.52
2022-12-24T06:13:00.374Z,1008.52
2022-12-24T06:14:00.548Z,1008.53
2022-12-24T06:15:00.730Z,1008.58
2022-12-24T06:16:01.041Z,1008.57
2022-12-24T06:17:01.058Z,1008.58
2022-12-24T06:18:01.214Z,1008.63
2022-12-24T06:19:01.385Z,1008.68
2022-12-24T06:20:01.570Z,1008.73
2022-12-24T06:21:01.727Z,1008.78
2022-12-24T06:22:01.894Z,1008.79
2022-12-24T06:23:02.057Z,1008.81
2022-12-24T06:24:02.244Z,1008.82
2022-12-24T06:25:02.407Z,1008.83
2022-12-24T06:26:02.569Z,1008.84
2022-12-24T06:27:02.733Z,1008.85
2022-12-24T06:28:02.916Z,1008.92
2022-12-24T06:29:03.056Z,1008.95
2022-12-24T06:30:03.239Z,1008.89
2022-12-24T06:31:03.823Z,1008.91
2022-12-24T06:32:03.573Z,1008.94
2022-12-24T06:33:03.766Z,1008.98
2022-12-24T06:34:03.941Z,1008.96
2022-12-24T06:35:04.100Z,1008.96
2022-12-24T06:36:04.282Z,1008.99
2022-12-24T06:37:04.451Z,1008.99
2022-12-24T06:38:04.660Z,1008.95
2022-12-24T06:39:04.800Z,1008.93
2022-12-24T06:40:05.006Z,1008.97
2022-12-24T06:41:05.123Z,1008.96
2022-12-24T06:42:05.303Z,1008.99
2022-12-24T06:43:05.484Z,1008.96
2022-12-24T06:44:05.652Z,1008.98
2022-12-24T06:45:08.625Z,1009.02
2022-12-24T06:46:06.053Z,1009.01
2022-12-24T06:47:06.177Z,1008.97
2022-12-24T06:48:06.362Z,1009.02
2022-12-24T06:49:06.534Z,1009.08
2022-12-24T06:50:06.716Z,1009.10
2022-12-24T06:51:06.896Z,1009.10
2022-12-24T06:52:07.074Z,1009.12
2022-12-24T06:53:07.257Z,1009.12
2022-12-24T06:54:07.434Z,1009.17
2022-12-24T06:55:07.612Z,1009.22
2022-12-24T06:56:07.806Z,1009.22
2022-12-24T06:57:07.961Z,1009.21
2022-12-24T06:58:08.146Z,1009.22
2022-12-24T06:59:08.311Z,1009.24
2022-12-24T07:00:08.557Z,1009.23
2022-12-24T07:01:08.674Z,1009.27
2022-12-24T07:02:08.947Z,1009.24
2022-12-24T07:03:08.958Z,1009.33
2022-12-24T07:04:13.150Z,1009.34
2022-12-24T07:05:10.367Z,1009.34
2022-12-24T07:06:09.510Z,1009.38
2022-12-24T07:07:09.701Z,1009.40
2022-12-24T07:08:09.861Z,1009.42
2022-12-24T07:09:10.053Z,1009.44
2022-12-24T07:10:10.221Z,1009.46
2022-12-24T07:11:10.380Z,1009.50
2022-12-24T07:12:10.541Z,1009.48
2022-12-24T07:13:10.701Z,1009.52
2022-12-24T07:14:10.861Z,1009.48
2022-12-24T07:15:11.078Z,1009.52
2022-12-24T07:16:11.324Z,1009.53
2022-12-24T07:17:11.485Z,1009.54
2022-12-24T07:18:11.580Z,1009.56
2022-12-24T07:19:11.861Z,1009.51
2022-12-24T07:20:11.938Z,1009.55
2022-12-24T07:21:12.093Z,1009.53
2022-12-24T07:22:15.723Z,1009.56
2022-12-24T07:23:12.420Z,1009.58
2022-12-24T07:24:12.571Z,1009.62
2022-12-24T07:25:12.748Z,1009.64
2022-12-24T07:26:12.916Z,1009.65
2022-12-24T07:27:13.079Z,1009.66
2022-12-24T07:28:13.266Z,1009.67
2022-12-24T07:29:13.439Z,1009.68
2022-12-24T07:30:13.634Z,1009.68
2022-12-24T07:31:13.867Z,1009.65
2022-12-24T07:32:13.959Z,1009.66
2022-12-24T07:33:14.184Z,1009.61
2022-12-24T07:34:14.331Z,1009.59
2022-12-24T07:35:14.516Z,1009.57
2022-12-24T07:36:14.690Z,1009.65
2022-12-24T07:37:14.852Z,1009.68
2022-12-24T07:38:15.049Z,1009.66
2022-12-24T07:39:15.207Z,1009.66
2022-12-24T07:40:15.370Z,1009.67
2022-12-24T07:41:15.579Z,1009.65
2022-12-24T07:42:15.702Z,1009.68
2022-12-24T07:43:15.894Z,1009.73
2022-12-24T07:44:16.075Z,1009.75
2022-12-24T07:45:16.280Z,1009.79
2022-12-24T07:46:16.466Z,1009.77
2022-12-24T07:47:16.627Z,1009.76
2022-12-24T07:48:16.809Z,1009.79
2022-12-24T07:49:16.998Z,1009.82
2022-12-24T07:50:17.197Z,1009.81
2022-12-24T07:51:17.361Z,1009.81
2022-12-24T07:52:17.550Z,1009.87
2022-12-24T07:53:17.736Z,1009.91
2022-12-24T07:54:17.941Z,1009.86
2022-12-24T07:55:18.109Z,1009.93
2022-12-24T07:56:18.265Z,1009.88
2022-12-24T07:57:18.464Z,1009.91
2022-12-24T07:58:18.618Z,1009.95
2022-12-24T07:59:18.820Z,1009.94
2022-12-24T08:00:18.998Z,1009.91
2022-12-24T08:01:19.203Z,1009.95
2022-12-24T08:02:19.502Z,1009.89
2022-12-24T08:03:19.616Z,1009.85
2022-12-24T08:04:19.687Z,1009.90
2022-12-24T08:05:19.889Z,1009.85
2022-12-24T08:06:20.059Z,1009.93
2022-12-24T08:07:20.259Z,1009.92
2022-12-24T08:08:20.420Z,1009.98
2022-12-24T08:09:20.596Z,1010.02
2022-12-24T08:10:20.765Z,1010.05
2022-12-24T08:11:20.929Z,1010.06
2022-12-24T08:12:21.128Z,1010.07
2022-12-24T08:13:21.307Z,1010.07
2022-12-24T08:14:21.492Z,1010.07
2022-12-24T08:15:21.677Z,1010.09
2022-12-24T08:16:21.952Z,1010.09
2022-12-24T08:17:25.505Z,1010.07
2022-12-24T08:18:23.197Z,1010.06
2022-12-24T08:19:22.379Z,1010.04
2022-12-24T08:20:22.557Z,1010.06
2022-12-24T08:21:22.748Z,1010.05
2022-12-24T08:22:22.898Z,1010.07
2022-12-24T08:23:23.066Z,1010.10
2022-12-24T08:24:23.236Z,1010.11
2022-12-24T08:25:23.436Z,1010.14
2022-12-24T08:26:23.587Z,1010.18
2022-12-24T08:27:23.765Z,1010.18
2022-12-24T08:28:23.945Z,1010.19
2022-12-24T08:29:24.138Z,1010.21
2022-12-24T08:30:24.312Z,1010.20
2022-12-24T08:31:24.480Z,1010.21
2022-12-24T08:32:24.638Z,1010.20
2022-12-24T08:33:24.807Z,1010.19
2022-12-24T08:34:24.946Z,1010.20
2022-12-24T08:35:25.138Z,1010.23
2022-12-24T08:36:25.309Z,1010.19
2022-12-24T08:37:25.496Z,1010.24
2022-12-24T08:38:25.640Z,1010.24
2022-12-24T08:39:25.824Z,1010.32
2022-12-24T08:40:26.016Z,1010.29
2022-12-24T08:41:26.175Z,1010.30
2022-12-24T08:42:26.397Z,1010.32
2022-12-24T08:43:26.546Z,1010.38
2022-12-24T08:44:26.725Z,1010.36
2022-12-24T08:45:27.008Z,1010.35
2022-12-24T08:46:27.121Z,1010.38
2022-12-24T08:47:27.249Z,1010.38
2022-12-24T08:48:27.404Z,1010.41
2022-12-24T08:49:27.572Z,1010.42
2022-12-24T08:50:27.737Z,1010.35
2022-12-24T08:51:27.900Z,1010.42
2022-12-24T08:52:28.075Z,1010.38
2022-12-24T08:53:28.227Z,1010.39
2022-12-24T08:54:28.385Z,1010.39
2022-12-24T08:55:28.568Z,1010.38
2022-12-24T08:56:28.755Z,1010.40
2022-12-24T08:57:28.955Z,1010.48
2022-12-24T08:58:29.115Z,1010.51
2022-12-24T08:59:29.287Z,1010.50
2022-12-24T09:00:29.458Z,1010.51
2022-12-24T09:01:29.715Z,1010.50
2022-12-24T09:02:29.938Z,1010.53
2022-12-24T09:03:30.025Z,1010.54
2022-12-24T09:04:30.160Z,1010.56
2022-12-24T09:05:30.360Z,1010.57
2022-12-24T09:06:30.512Z,1010.69
2022-12-24T09:07:30.700Z,1010.66
2022-12-24T09:08:30.889Z,1010.69
2022-12-24T09:09:37.530Z,1010.68
2022-12-24T09:10:32.216Z,1010.67
2022-12-24T09:11:31.376Z,1010.70
2022-12-24T09:12:31.568Z,1010.77
2022-12-24T09:13:31.711Z,1010.80
2022-12-24T09:14:31.921Z,1010.80
2022-12-24T09:15:32.073Z,1010.87
2022-12-24T09:16:32.295Z,1010.87
2022-12-24T09:17:32.420Z,1010.86
2022-12-24T09:18:32.547Z,1010.83
2022-12-24T09:19:32.742Z,1010.84
2022-12-24T09:20:32.923Z,1010.89
2022-12-24T09:21:33.063Z,1010.83
2022-12-24T09:22:33.253Z,1010.86
2022-12-24T09:23:33.446Z,1010.90
2022-12-24T09:24:33.634Z,1010.94
2022-12-24T09:25:33.841Z,1010.97
2022-12-24T09:26:33.982Z,1010.94
2022-12-24T09:27:34.163Z,1010.94
2022-12-24T09:28:34.354Z,1010.97
2022-12-24T09:29:34.576Z,1011.04
2022-12-24T09:30:34.712Z,1011.04
2022-12-24T09:31:34.898Z,1011.03
2022-12-24T09:32:35.072Z,1011.09
2022-12-24T09:33:35.234Z,1011.10
2022-12-24T09:34:35.410Z,1011.08
2022-12-24T09:35:35.600Z,1011.11
2022-12-24T09:36:35.788Z,1011.15
2022-12-24T09:37:35.976Z,1011.11
2022-12-24T09:38:36.133Z,1011.13
2022-12-24T09:39:36.319Z,1011.16
2022-12-24T09:40:36.511Z,1011.16
2022-12-24T09:41:36.686Z,1011.21
2022-12-24T09:42:36.887Z,1011.21
2022-12-24T09:43:37.035Z,1011.24
2022-12-24T09:44:37.220Z,1011.26
2022-12-24T09:45:37.420Z,1011.27
2022-12-24T09:46:37.563Z,1011.30
2022-12-24T09:47:37.764Z,1011.35
2022-12-24T09:48:37.936Z,1011.32
2022-12-24T09:49:38.119Z,1011.39
2022-12-24T09:50:38.298Z,1011.38
2022-12-24T09:51:38.493Z,1011.38
2022-12-24T09:52:38.692Z,1011.41
2022-12-24T09:53:38.840Z,1011.42
2022-12-24T09:54:43.039Z,1011.42
2022-12-24T09:55:40.240Z,1011.44
2022-12-24T09:56:39.411Z,1011.44
2022-12-24T09:57:39.581Z,1011.49
2022-12-24T09:58:39.765Z,1011.50
2022-12-24T09:59:39.943Z,1011.56
2022-12-24T10:00:44.508Z,1011.53
2022-12-24T10:01:41.410Z,1011.54
2022-12-24T10:02:40.672Z,1011.57
2022-12-24T10:03:40.668Z,1011.54
2022-12-24T10:04:40.813Z,1011.54
2022-12-24T10:05:41.019Z,1011.53
2022-12-24T10:06:41.179Z,1011.58
2022-12-24T10:07:41.358Z,1011.58
2022-12-24T10:08:41.521Z,1011.59
2022-12-24T10:09:41.724Z,1011.62
2022-12-24T10:10:41.902Z,1011.57
2022-12-24T10:11:44.213Z,1011.55
2022-12-24T10:12:49.182Z,1011.56
2022-12-24T10:13:43.391Z,1011.64
2022-12-24T10:14:42.562Z,1011.67
2022-12-24T10:15:42.772Z,1011.71
2022-12-24T10:16:42.993Z,1011.73
2022-12-24T10:17:43.099Z,1011.73
2022-12-24T10:18:49.107Z,1011.75
2022-12-24T10:19:44.467Z,1011.74
2022-12-24T10:20:43.750Z,1011.75
2022-12-24T10:21:43.778Z,1011.78
2022-12-24T10:22:43.959Z,1011.79
2022-12-24T10:23:44.128Z,1011.84
2022-12-24T10:24:50.081Z,1011.85
2022-12-24T10:25:45.480Z,1011.90
2022-12-24T10:26:44.635Z,1011.90
2022-12-24T10:27:44.841Z,1011.94
2022-12-24T10:28:44.998Z,1011.98
2022-12-24T10:29:45.195Z,1011.94
2022-12-24T10:30:45.384Z,1011.95
2022-12-24T10:31:45.529Z,1011.96
2022-12-24T10:32:45.690Z,1011.92
2022-12-24T10:33:45.861Z,1012.00
2022-12-24T10:34:46.047Z,1012.01
2022-12-24T10:35:46.239Z,1012.02
2022-12-24T10:36:46.410Z,1012.05
2022-12-24T10:37:46.602Z,1012.02
2022-12-24T10:38:46.779Z,1012.10
2022-12-24T10:39:47.055Z,1012.05
2022-12-24T10:40:47.153Z,1012.08
2022-12-24T10:41:47.304Z,1012.02
2022-12-24T10:42:51.420Z,1012.06
2022-12-24T10:43:47.694Z,1012.07
2022-12-24T10:44:47.819Z,1012.04
2022-12-24T10:45:48.063Z,1012.02
2022-12-24T10:46:48.232Z,1012.05
2022-12-24T10:47:48.355Z,1012.09
2022-12-24T10:48:50.975Z,1012.15
2022-12-24T10:49:48.714Z,1012.20
2022-12-24T10:50:48.899Z,1012.21
2022-12-24T10:51:49.066Z,1012.22
2022-12-24T10:52:49.269Z,1012.26
2022-12-24T10:53:49.440Z,1012.29
2022-12-24T10:54:49.619Z,1012.32
2022-12-24T10:55:49.821Z,1012.34
2022-12-24T10:56:49.988Z,1012.36
2022-12-24T10:57:50.187Z,1012.34
2022-12-24T10:58:50.328Z,1012.23
2022-12-24T10:59:50.535Z,1012.26
2022-12-24T11:00:50.728Z,1012.31
2022-12-24T11:01:51.093Z,1012.30
2022-12-24T11:02:51.279Z,1012.35
2022-12-24T11:03:51.282Z,1012.36
2022-12-24T11:04:51.409Z,1012.36
2022-12-24T11:05:51.608Z,1012.32
2022-12-24T11:06:51.791Z,1012.32
2022-12-24T11:07:51.968Z,1012.29
2022-12-24T11:08:52.149Z,1012.29
2022-12-24T11:09:52.329Z,1012.27
2022-12-24T11:10:52.532Z,1012.31
2022-12-24T11:11:52.701Z,1012.28
2022-12-24T11:13:13.228Z,1012.33
2022-12-24T11:13:54.070Z,1012.35
2022-12-24T11:14:53.257Z,1012.38
2022-12-24T11:15:53.508Z,1012.36
2022-12-24T11:16:53.637Z,1012.35
2022-12-24T11:17:53.842Z,1012.39
2022-12-24T11:18:53.985Z,1012.39
2022-12-24T11:19:54.147Z,1012.32
2022-12-24T11:20:54.360Z,1012.33
2022-12-24T11:21:54.522Z,1012.41
2022-12-24T11:22:54.839Z,1012.43
2022-12-24T11:23:54.890Z,1012.44
2022-12-24T11:24:55.080Z,1012.43
2022-12-24T11:25:55.257Z,1012.38
2022-12-24T11:26:55.437Z,1012.35
2022-12-24T11:27:55.638Z,1012.32
2022-12-24T11:28:55.815Z,1012.34
2022-12-24T11:29:59.524Z,1012.34
2022-12-24T11:30:56.213Z,1012.47
2022-12-24T11:31:56.374Z,1012.44
2022-12-24T11:32:56.577Z,1012.43
2022-12-24T11:33:56.711Z,1012.46
2022-12-24T11:34:56.898Z,1012.49
2022-12-24T11:35:57.077Z,1012.49
2022-12-24T11:36:57.285Z,1012.44
2022-12-24T11:37:57.430Z,1012.52
2022-12-24T11:38:57.605Z,1012.50
2022-12-24T11:39:57.806Z,1012.53
2022-12-24T11:40:58.007Z,1012.54
2022-12-24T11:41:58.178Z,1012.52
2022-12-24T11:42:58.327Z,1012.57
2022-12-24T11:43:58.516Z,1012.51
2022-12-24T11:44:58.718Z,1012.53
2022-12-24T11:45:58.896Z,1012.56
2022-12-24T11:46:59.200Z,1012.55
2022-12-24T11:47:59.248Z,1012.51
2022-12-24T11:49:04.355Z,1012.51
2022-12-24T11:50:17.533Z,1012.53
2022-12-24T11:51:00.798Z,1012.50
2022-12-24T11:51:59.957Z,1012.44
2022-12-24T11:53:00.121Z,1012.49
2022-12-24T11:54:00.297Z,1012.50
2022-12-24T11:55:00.484Z,1012.59
2022-12-24T11:56:00.657Z,1012.59
2022-12-24T11:57:00.870Z,1012.64
2022-12-24T11:58:01.027Z,1012.60
2022-12-24T11:59:01.189Z,1012.61
2022-12-24T12:00:01.344Z,1012.59
2022-12-24T12:01:01.538Z,1012.58
2022-12-24T12:02:01.785Z,1012.63
2022-12-24T12:03:01.974Z,1012.62
2022-12-24T12:04:02.142Z,1012.65
2022-12-24T12:05:02.208Z,1012.60
2022-12-24T12:06:02.374Z,1012.63
2022-12-24T12:07:02.577Z,1012.64
2022-12-24T12:08:02.745Z,1012.64